Fearnot, Pennsylvania
Current Conditions -  °F | °C
As of 3:58 PM on Thursday 18 Dec 2014 (Local Time) from KMUI Reporting Station
Overcast Overcast  
Wind Chill: 25°   Ceiling: 2700
Heat Index: 34°   Visibility: 10mi
Dew Point: 26°   Wind: 12mph
Humidity: 71%   Direction: 280°W
Pressure: 30.06"   Gusts: NA
Location:  40.6357°N, 76.6093°W
Report Text: KMUI 182058Z AUTO 28010KT 10SM OVC027 01/M04 A3006 RMK AO2 SLP187 T00111036
Loading
Personal Weather Stations






























Interactive Weather Map New forecast layout! Learn more

10-Day Weather Forecast

Advertisements
Track Severe Weather on mobile